Beckville, Texas
Current Conditions -  °F | °C
As of 11:05 AM on Sunday 23 Nov 2014 (Local Time) from KGGG Reporting Station
Scattered Clouds Scattered Clouds  
Wind Chill: 66°   Ceiling: Unl
Heat Index: 66°   Visibility: 10mi
Dew Point: 59°   Wind: 13mph
Humidity: 78%   Direction: 230°SW
Pressure: 29.52"   Gusts: NA
Location:  32.24°N, 94.46°W
Report Text: KGGG 231705Z 23011KT 10SM SCT018 19/15 A2952 RMK AO2 T01890150
Loading
Personal Weather Stations






























Interactive Weather Map New forecast layout! Learn more

10-Day Weather Forecast

Advertisements
Track Severe Weather on mobile